Startline

Arbutus Fun Run 5K

Vancouver, BC - 1 juillet 2018

ÉpreuveRangTemps officiel DossardNomDivision Rang/sexeRang/division Puce
5K 1/115 0:19:05 28 CHAPMAN, Tomas M1519 1/64 1/4 0:18:58
5K 2/115 0:20:20 82 MASON, Peter M1519 2/64 2/4 0:20:18
5K 3/115 0:20:42 108 O'KEEFE, Stephen M5059 3/64 1/4 0:20:40
5K 4/115 0:21:32 116 SILVERMAN, Joel M5059 4/64 2/4 0:21:23
5K 5/115 0:21:55 4 ANDERSON, Keith M4049 5/64 1/19 0:21:46
5K 6/115 0:22:00 142 BARTON, Atlas F1014 1/51 1/6 0:21:58
5K 7/115 0:22:02 20 BUSTILLOS, Marcelino M3039 6/64 1/6 0:21:48
5K 8/115 0:22:08 55 KIM, Hugh M4049 7/64 2/19 0:22:01
5K 9/115 0:22:36 94 MIU, Winston M2029 8/64 1/2 0:22:32
5K 10/115 0:23:09 107 O'KEEFE, Connor M1014 9/64 1/13 0:23:06
5K 11/115 0:23:15 70 LEE, Philip M4049 10/64 3/19 0:22:56
5K 12/115 0:23:19 81 LUM, Ann-Marie F5059 2/51 1/8 0:23:16
5K 13/115 0:23:42 2 ANDERSON, Cassidy F1014 3/51 2/6 0:23:34
5K 14/115 0:24:04 80 LUI, Tomson M1014 11/64 2/13 0:23:50
5K 15/115 0:24:12 78 LUI, Teson M1014 12/64 3/13 0:23:59
5K 16/115 0:24:17 96 MONG, Adam M1519 13/64 3/4 0:24:00
5K 17/115 0:24:23 69 LEE, Pamela F4049 4/51 1/12 0:24:04
5K 18/115 0:24:35 11 BAUR, Paul M3039 14/64 2/6 0:24:29
5K 19/115 0:24:47 73 LEONG, Courtney F3039 5/51 1/4 0:24:34
5K 20/115 0:25:06 41 FIDDES, Sophie F1519 6/51 1/2 0:25:02
5K 21/115 0:25:15 141 BARTON, Gabrielle F5-9 7/51 1/7 0:25:13
5K 22/115 0:25:17 97 MONG, Michael M6069 15/64 1/5 0:24:59
5K 23/115 0:25:29 149 WESK, Keir M4049 16/64 4/19 0:25:21
5K 24/115 0:25:41 122 WHITCHELO, Ian M3039 17/64 3/6 0:25:31
5K 25/115 0:26:17 1 ANDERSON, Brendan M5-9 18/64 1/6 0:26:07
5K 26/115 0:26:29 145 SCHINDEL, Scott M4049 19/64 5/19 0:26:24
5K 27/115 0:26:33 144 SCHINDEL, Jonathan M1014 20/64 4/13 0:26:28
5K 28/115 0:26:35 75 LOUIE, Kate F1014 8/51 3/6 0:26:32
5K 29/115 0:26:46 126 WILLIAMS, Luke M1014 21/64 5/13 0:26:40
5K 30/115 0:26:46 125 WILLIAMS, Laura F4049 9/51 2/12 0:26:40
5K 31/115 0:26:52 40 FIDDES, Sarah F2029 10/51 1/2 0:26:50
5K 32/115 0:27:12 129 YOUNG, Dexter M2029 22/64 2/2 0:26:56
5K 33/115 0:27:23 38 DUFF, Kathryn F5059 11/51 2/8 0:27:12
5K 34/115 0:27:24 26 CHAN-YAN, Deborah F4049 12/51 3/12 0:27:14
5K 35/115 0:27:26 27 CHAPMAN, Natalee F1014 13/51 4/6 0:27:18
5K 36/115 0:27:31 143 SCHINDEL, Jamie M1014 23/64 6/13 0:27:26
5K 37/115 0:27:43 93 MIU, Oliver M1519 24/64 4/4 0:27:40
5K 38/115 0:27:43 72 LEHMAN, Sara F5-9 14/51 2/7 0:27:36
5K 39/115 0:27:51 67 LEE, John M6069 25/64 2/5 0:27:44
5K 40/115 0:28:16 36 CHHAN, Vanny F3039 15/51 2/4 0:28:05
5K 41/115 0:28:17 148 HOPKINS, Catherine F5059 16/51 3/8 0:28:11
5K 42/115 0:28:20 42 GERBER, Ellen F6069 17/51 1/4 0:28:06
5K 43/115 0:28:47 121 WALWYN, Keith F1014 18/51 5/6 0:28:33
5K 44/115 0:28:57 46 HARRISON, Michelle F5059 19/51 4/8 0:28:44
5K 45/115 0:29:01 79 LUI, Tom M4049 26/64 6/19 0:28:44
5K 46/115 0:29:17 53 JOHNSTON, Tristan M1014 27/64 7/13 0:28:59
5K 47/115 0:29:26 52 JOHNSTON, Brent M4049 28/64 7/19 0:29:09
5K 48/115 0:29:50 16 BRUMWELL, Jillian F4049 20/51 4/12 0:29:33
5K 49/115 0:30:12 95 MOIR, Stuart M5059 29/64 3/4 0:28:44
5K 50/115 0:30:22 146 PEARSON, Geoff M4049 30/64 8/19 0:30:17
5K 51/115 0:32:02 87 MCCARTHY, Raili F5059 21/51 5/8 0:31:55
5K 52/115 0:32:04 131 YOUNG, Leela F1519 22/51 2/2 0:31:48
5K 53/115 0:32:10 74 LOUIE, Gabrielle F4049 23/51 5/12 0:32:06
5K 54/115 0:32:10 147 PEARSON, Jen F4049 24/51 6/12 0:32:05
5K 55/115 0:32:15 114 RUTHERFORD-BRAUN, Benjamin M1014 31/64 8/13 0:32:13
5K 56/115 0:32:16 14 BROWNING, David M3039 32/64 4/6 0:31:55
5K 57/115 0:32:16 45 GRIFFITH, Jaxon M5-9 33/64 2/6 0:31:56
5K 58/115 0:32:24 43 GILL, Karamjit F4049 25/51 7/12 0:32:20
5K 59/115 0:32:31 10 BATES, Michele F70+ 26/51 1/4 0:32:27
5K 60/115 0:32:33 17 BRUMWELL, Rowan F5-9 27/51 3/7 0:32:31
5K 61/115 0:32:37 130 YOUNG, John M4049 34/64 9/19 0:32:14
5K 62/115 0:32:41 132 YOUNG, Rosalin F5059 28/51 6/8 0:32:24
5K 63/115 0:33:09 124 WILLIAMS, Kelly M4049 35/64 10/19 0:33:02
5K 64/115 0:33:09 123 WILLIAMS, Elise Marie F5-9 29/51 4/7 0:33:02
5K 65/115 0:33:33 37 DHALIWAL, Rayna F1014 30/51 6/6 0:33:31
5K 66/115 0:34:35 71 LEHMAN, Allen M4049 36/64 11/19 0:34:28
5K 67/115 0:34:37 56 KIM, Yong-Jae M4049 37/64 12/19 0:34:26
5K 68/115 0:34:47 65 LEE, Andrew M1014 38/64 9/13 0:34:28
5K 69/115 0:34:54 102 MORI, Tyler M4049 39/64 13/19 0:34:21
5K 70/115 0:35:00 25 CHAN, Herbert M4049 40/64 14/19 0:34:48
5K 71/115 0:35:01 24 CHAN, Connie F4049 31/51 8/12 0:34:49
5K 72/115 0:35:02 23 CHAN, Alexander M5-9 41/64 3/6 0:34:49
5K 73/115 0:35:23 21 BUTLER, Andrea F5059 32/51 7/8 0:35:20
5K 74/115 0:35:24 105 MULLER, Lincoln M5-9 42/64 4/6 0:35:12
5K 75/115 0:35:32 104 MULLER, Koen M1014 43/64 10/13 0:35:16
5K 76/115 0:35:40 15 BROWNING, Teresa F3039 33/51 3/4 0:35:21
5K 77/115 0:35:47 103 MULLER, Jonathan M4049 44/64 15/19 0:35:29
5K 78/115 0:35:47 76 LOUIE, Owen M1014 45/64 11/13 0:35:45
5K 79/115 0:35:49 106 MULLER, Maisie F-U4 34/51 1/1 0:35:33
5K 80/115 0:35:51 127 WILLIAMSON, Stephanie F4049 35/51 9/12 0:35:34
5K 81/115 0:36:25 99 MORGAN, Rhys M5-9 46/64 5/6 0:36:16
5K 82/115 0:36:27 100 MORGAN, Tony M4049 47/64 16/19 0:36:17
5K 83/115 0:36:33 85 MAXWELL-SMITH, Eliner F5059 36/51 8/8 0:36:19
5K 84/115 0:36:35 86 MAXWELL-SMITH, Leigh F2029 37/51 2/2 0:36:20
5K 85/115 0:36:43 77 LUI, Teresa F4049 38/51 10/12 0:36:11
5K 86/115 0:36:48 91 MEE, Jay Scott M4049 48/64 17/19 0:33:46
5K 87/115 0:36:57 83 MATHESON, Grace F5-9 39/51 5/7 0:36:41
5K 88/115 0:36:58 120 WALWYN, Jane F5-9 40/51 6/7 0:36:42
5K 89/115 0:36:59 84 MATHESON, Kyle M4049 49/64 18/19 0:36:43
5K 90/115 0:37:54 49 HO, Alice F6069 41/51 2/4 0:37:46
5K 91/115 0:39:33 34 CHEYNE, Jacob M-U5 50/64 1/2 0:35:44
5K 92/115 0:39:33 33 CHEYNE, Ian M3039 51/64 5/6 0:35:45
5K 93/115 0:39:33 35 CHEYNE, William M-U5 52/64 2/2 0:35:45
5K 94/115 0:39:35 8 AYDIN, Cristina F3039 42/51 4/4 0:35:48
5K 95/115 0:39:57 113 RUTHERFORD-BRAUN, Andrew M5-9 53/64 6/6 0:39:54
5K 96/115 0:39:57 112 RUTHERFORD, Devon M4049 54/64 19/19 0:39:53
5K 97/115 0:41:41 44 GRIFFITH, Jada F5-9 43/51 7/7 0:41:19
5K 98/115 0:41:42 50 ISERT, David M3039 55/64 6/6 0:41:19
5K 99/115 0:41:43 51 ISERT, Misea F9999 44/51 1/1 0:41:21
5K 100/115 0:42:12 115 RUTHERFORD-BRAUN, Henry M1014 56/64 12/13 0:42:08
5K 101/115 0:42:15 3 ANDERSON, Charles M6069 57/64 3/5 0:41:53
5K 102/115 0:42:23 13 BRAUN, Shelley F4049 45/51 11/12 0:42:17
5K 103/115 0:42:29 128 YOSHIDA, Eric M M5059 58/64 4/4 0:42:18
5K 104/115 0:43:23 110 PATTERSON, Michael M70+ 59/64 1/3 0:43:10
5K 105/115 0:46:36 9 BARNES, Joanne F4049 46/51 12/12 0:45:58
5K 106/115 0:46:41 117 TURRIFF, Gordon M6069 60/64 4/5 0:46:25
5K 107/115 0:47:02 98 MORGAN, Margaret F70+ 47/51 2/4 0:46:41
5K 108/115 0:47:06 12 BOYLE, Marion F70+ 48/51 3/4 0:46:45
5K 109/115 0:48:47 88 MCCLOY, Myra M70+ 61/64 2/3 0:48:40
5K 110/115 0:48:59 150 BUNTAIN, Lois F70+ 49/51 4/4 0:48:18
5K 111/115 0:49:02 19 BUNTAIN, Lynn F6069 50/51 3/4 0:48:22
5K 112/115 0:51:05 118 VAN DER FLIER, Susan F6069 51/51 4/4 0:50:16
5K 113/115 0:51:08 39 FIDDES, John M70+ 62/64 3/3 0:50:21
5K 114/115 0:55:38 47 HAYWARD, Nathan M1014 63/64 13/13 0:55:15
5K 115/115 0:55:38 48 HAYWARD, Richard M6069 64/64 5/5 0:55:15